Time;durP1;ratioP1;P1;durP2;ratioP2;P2;SDS_P1;SDS_P2;PMS_P1;PMS_P2;Temp;Humidity;BMP_temperature;BMP_pressure;BME280_temperature;BME280_humidity;BME280_pressure;Samples;Min_cycle;Max_cycle;Signal;HPM_P1;HPM_P2
2021/07/12 00:01:12;;;;;;;8.00;3.00;;;14.20;99.90;;;;;;5043021;28;20470;-76
2021/07/12 00:03:39;;;;;;;4.20;3.00;;;14.20;99.90;;;;;;5043708;28;21021;-75
2021/07/12 00:06:05;;;;;;;5.40;2.80;;;14.20;99.90;;;;;;5043965;28;20468;-76
2021/07/12 00:08:32;;;;;;;3.83;2.80;;;14.10;99.90;;;;;;5043690;28;20470;-76
2021/07/12 00:10:59;;;;;;;4.47;2.70;;;14.10;99.90;;;;;;5043088;28;20466;-76
2021/07/12 00:13:26;;;;;;;2.87;2.50;;;14.10;99.90;;;;;;5043598;28;20479;-75
2021/07/12 00:15:54;;;;;;;3.13;2.83;;;14.10;99.90;;;;;;5043596;28;20471;-76
2021/07/12 00:18:20;;;;;;;4.73;3.33;;;14.00;99.90;;;;;;5044168;28;20471;-75
2021/07/12 00:20:47;;;;;;;3.00;2.70;;;14.00;99.90;;;;;;5042762;28;20467;-76
2021/07/12 00:23:14;;;;;;;2.80;2.60;;;14.00;99.90;;;;;;5043717;28;20456;-75
2021/07/12 00:25:40;;;;;;;2.80;2.60;;;14.00;99.90;;;;;;5043711;28;20467;-77
2021/07/12 00:28:07;;;;;;;5.27;3.13;;;14.00;99.90;;;;;;5043395;28;21178;-76
2021/07/12 00:30:34;;;;;;;3.37;3.07;;;14.00;99.90;;;;;;5042857;28;20491;-76
2021/07/12 00:33:02;;;;;;;3.37;3.07;;;13.90;99.90;;;;;;5043351;28;20525;-75
2021/07/12 00:35:29;;;;;;;3.77;3.10;;;13.90;99.90;;;;;;5043935;28;20509;-76
2021/07/12 00:37:56;;;;;;;4.30;3.20;;;13.90;99.90;;;;;;5043378;28;20463;-76
2021/07/12 00:40:25;;;;;;;4.23;3.33;;;13.90;99.90;;;;;;5043037;28;20471;-76
2021/07/12 00:42:52;;;;;;;4.03;3.10;;;13.90;99.90;;;;;;5043276;28;20474;-77
2021/07/12 00:45:21;;;;;;;3.10;2.83;;;13.80;99.90;;;;;;5043137;28;20479;-76
2021/07/12 00:47:48;;;;;;;3.30;2.60;;;13.80;99.90;;;;;;5043535;28;20459;-76
2021/07/12 00:50:17;;;;;;;4.70;3.13;;;13.80;99.90;;;;;;5044030;28;21119;-76
2021/07/12 00:52:45;;;;;;;3.20;2.90;;;13.80;99.90;;;;;;5048176;28;20467;-77
2021/07/12 00:55:20;;;;;;;3.23;2.90;;;13.80;99.90;;;;;;5046675;28;20837;-77
2021/07/12 00:57:47;;;;;;;5.63;3.10;;;13.70;99.90;;;;;;5121024;22;20505;-71
2021/07/12 01:00:15;;;;;;;3.10;2.80;;;13.70;99.90;;;;;;5047447;28;20509;-70
2021/07/12 01:02:42;;;;;;;3.87;2.93;;;13.70;99.90;;;;;;5048880;28;20463;-71
2021/07/12 01:05:13;;;;;;;3.70;3.40;;;13.70;99.90;;;;;;5047993;28;20476;-71
2021/07/12 01:07:41;;;;;;;3.10;2.90;;;13.70;99.90;;;;;;5048530;28;20463;-70
2021/07/12 01:10:10;;;;;;;5.77;3.70;;;13.70;99.90;;;;;;5047843;28;20494;-70
2021/07/12 01:12:43;;;;;;;4.00;3.50;;;13.60;99.90;;;;;;5048377;28;20471;-70
2021/07/12 01:15:12;;;;;;;4.57;3.33;;;13.60;99.90;;;;;;5051135;28;20476;-71
2021/07/12 01:17:48;;;;;;;5.93;3.03;;;13.60;99.90;;;;;;5052210;28;20881;-71
2021/07/12 01:21:09;;;;;;;3.30;3.00;;;13.60;99.90;;;;;;5051646;28;20462;-70
2021/07/12 01:24:10;;;;;;;4.23;3.20;;;13.60;99.90;;;;;;4971337;28;20509;-70
2021/07/12 01:27:14;;;;;;;5.30;3.03;;;13.60;99.90;;;;;;4971093;28;20594;-71
2021/07/12 01:30:03;;;;;;;3.37;3.07;;;13.60;99.90;;;;;;5046810;28;20510;-70
2021/07/12 01:32:56;;;;;;;5.73;3.27;;;13.60;99.90;;;;;;5052290;28;20470;-70
2021/07/12 01:35:30;;;;;;;4.10;3.10;;;13.50;99.90;;;;;;5051941;28;20912;-71
2021/07/12 01:38:10;;;;;;;4.00;3.30;;;13.50;99.90;;;;;;5052257;28;20908;-70
2021/07/12 01:40:46;;;;;;;3.57;3.27;;;13.50;99.90;;;;;;5051515;28;20459;-70
2021/07/12 01:43:21;;;;;;;3.77;3.37;;;13.50;99.90;;;;;;5051846;28;20460;-70
2021/07/12 01:45:59;;;;;;;3.93;3.17;;;13.40;99.90;;;;;;5051986;28;20534;-70
2021/07/12 01:48:34;;;;;;;8.73;3.37;;;13.40;99.90;;;;;;5051741;28;20968;-70
2021/07/12 01:51:05;;;;;;;6.93;3.90;;;13.40;99.90;;;;;;5051292;28;21076;-71
2021/07/12 01:53:39;;;;;;;3.37;3.10;;;13.40;99.90;;;;;;5051816;28;20884;-70
2021/07/12 01:56:11;;;;;;;4.10;3.50;;;13.40;99.90;;;;;;5051032;28;20474;-71
2021/07/12 01:58:42;;;;;;;3.87;3.13;;;13.40;99.90;;;;;;5051606;28;20463;-70
2021/07/12 02:01:11;;;;;;;4.10;3.67;;;13.40;99.90;;;;;;5050604;28;20463;-71
2021/07/12 02:03:39;;;;;;;4.20;3.10;;;13.40;99.90;;;;;;5050401;28;20511;-71
2021/07/12 02:06:09;;;;;;;5.10;3.47;;;13.30;99.90;;;;;;5051086;28;20513;-70
2021/07/12 02:08:47;;;;;;;5.20;4.03;;;13.40;99.90;;;;;;5051447;28;20467;-71
2021/07/12 02:11:16;;;;;;;4.00;3.60;;;13.30;99.90;;;;;;5050928;28;20498;-70
2021/07/12 02:13:46;;;;;;;3.70;3.30;;;13.30;99.90;;;;;;5051126;28;20597;-71
2021/07/12 02:16:13;;;;;;;4.13;3.60;;;13.30;99.90;;;;;;5051156;28;20990;-70
2021/07/12 02:18:43;;;;;;;4.53;4.13;;;13.30;99.90;;;;;;5051041;28;20459;-70
2021/07/12 02:21:11;;;;;;;4.73;3.40;;;13.30;99.90;;;;;;5050359;28;20958;-71
2021/07/12 02:23:40;;;;;;;5.43;3.50;;;13.30;99.90;;;;;;5051008;28;20878;-71
2021/07/12 02:26:08;;;;;;;4.50;4.00;;;13.30;99.90;;;;;;5050626;28;20463;-71
2021/07/12 02:28:35;;;;;;;3.50;3.20;;;13.30;99.90;;;;;;5050833;28;20467;-71
2021/07/12 02:31:03;;;;;;;5.03;3.73;;;13.30;99.90;;;;;;5049906;28;20489;-70
2021/07/12 02:33:30;;;;;;;4.57;4.17;;;13.30;99.90;;;;;;5050676;28;20498;-70
2021/07/12 02:36:01;;;;;;;4.70;4.17;;;13.20;99.90;;;;;;5050641;28;20470;-70
2021/07/12 02:38:29;;;;;;;5.40;4.23;;;13.20;99.90;;;;;;5050508;28;20494;-70
2021/07/12 02:40:56;;;;;;;4.03;3.63;;;13.20;99.90;;;;;;5049820;28;20468;-70
2021/07/12 02:43:24;;;;;;;4.23;3.27;;;13.20;99.90;;;;;;5050137;28;20490;-71
2021/07/12 02:45:53;;;;;;;5.40;3.87;;;13.20;99.90;;;;;;5050519;28;20459;-70
2021/07/12 02:48:20;;;;;;;3.93;3.63;;;13.20;99.90;;;;;;5050075;28;20474;-70
2021/07/12 02:50:50;;;;;;;5.20;4.17;;;13.20;99.90;;;;;;5049712;28;21036;-71
2021/07/12 02:53:21;;;;;;;4.53;3.53;;;13.20;99.90;;;;;;5050024;28;20463;-70
2021/07/12 02:55:48;;;;;;;4.30;3.90;;;13.20;99.90;;;;;;5050309;28;20463;-70
2021/07/12 02:58:15;;;;;;;4.60;3.50;;;13.20;99.90;;;;;;5049911;28;20459;-71
2021/07/12 03:00:43;;;;;;;4.27;3.87;;;13.10;99.90;;;;;;5049766;28;20468;-70
2021/07/12 03:03:09;;;;;;;4.30;3.90;;;13.10;99.90;;;;;;5049815;28;20463;-70
2021/07/12 03:05:36;;;;;;;3.90;3.37;;;13.10;99.90;;;;;;5049834;28;20464;-70
2021/07/12 03:08:08;;;;;;;4.47;3.40;;;13.10;99.90;;;;;;5050040;28;20478;-71
2021/07/12 03:10:42;;;;;;;6.60;3.83;;;13.10;99.90;;;;;;5048930;28;20491;-70
2021/07/12 03:13:13;;;;;;;5.00;4.50;;;13.10;99.90;;;;;;5049629;28;21000;-69
2021/07/12 03:15:41;;;;;;;4.10;3.70;;;13.10;99.90;;;;;;5049836;28;20486;-70
2021/07/12 03:18:12;;;;;;;4.70;3.67;;;13.10;99.90;;;;;;5049705;28;20463;-70
2021/07/12 03:20:44;;;;;;;6.63;3.30;;;13.10;99.90;;;;;;5049038;28;20456;-70
2021/07/12 03:23:14;;;;;;;5.40;3.53;;;13.10;99.90;;;;;;5049566;28;20459;-70
2021/07/12 03:25:47;;;;;;;4.47;3.60;;;13.00;99.90;;;;;;5049607;28;20823;-71
2021/07/12 03:28:14;;;;;;;3.87;3.10;;;13.00;99.90;;;;;;5049236;28;20459;-71
2021/07/12 03:30:43;;;;;;;4.37;3.20;;;13.10;99.90;;;;;;5049026;28;20487;-70
2021/07/12 03:33:10;;;;;;;3.77;3.47;;;13.00;99.90;;;;;;5048161;28;20857;-70
2021/07/12 03:35:44;;;;;;;3.43;3.10;;;13.00;99.90;;;;;;5048758;28;20455;-71
2021/07/12 03:38:12;;;;;;;3.77;3.40;;;13.00;99.90;;;;;;5044858;28;20969;-71
2021/07/12 03:40:40;;;;;;;3.73;3.30;;;13.00;99.90;;;;;;5047404;28;20491;-71
2021/07/12 03:43:09;;;;;;;6.10;3.40;;;13.00;99.90;;;;;;5044844;28;20538;-71
2021/07/12 03:45:36;;;;;;;4.37;3.50;;;12.90;99.90;;;;;;5047895;28;20977;-70
2021/07/12 03:48:03;;;;;;;3.77;3.30;;;12.90;99.90;;;;;;5047529;28;20462;-71
2021/07/12 03:50:29;;;;;;;3.57;3.10;;;12.90;99.90;;;;;;5047165;28;20487;-71
2021/07/12 03:53:00;;;;;;;4.40;3.80;;;12.90;99.90;;;;;;5049673;28;20869;-72
2021/07/12 03:55:28;;;;;;;3.43;3.13;;;12.90;99.90;;;;;;5049105;28;20487;-73
2021/07/12 03:57:55;;;;;;;4.13;3.00;;;12.90;99.90;;;;;;5049353;28;20664;-72
2021/07/12 04:00:25;;;;;;;4.13;3.03;;;12.90;99.90;;;;;;5047582;28;20502;-72
2021/07/12 04:02:52;;;;;;;3.50;2.80;;;12.90;99.90;;;;;;5048926;28;20463;-72
2021/07/12 04:05:23;;;;;;;3.87;2.97;;;12.90;99.90;;;;;;5048594;28;20526;-72
2021/07/12 04:07:51;;;;;;;3.47;3.17;;;12.90;99.90;;;;;;5048902;28;20463;-72
2021/07/12 04:10:19;;;;;;;3.43;3.13;;;12.90;99.90;;;;;;5048017;28;20523;-73
2021/07/12 04:12:46;;;;;;;3.90;3.50;;;12.90;99.90;;;;;;5048722;28;20471;-72
2021/07/12 04:15:14;;;;;;;4.30;3.37;;;12.90;99.90;;;;;;5048586;28;20486;-72
2021/07/12 04:17:43;;;;;;;3.90;3.00;;;12.90;99.90;;;;;;5047781;28;20459;-72
2021/07/12 04:20:12;;;;;;;3.50;3.20;;;12.90;99.90;;;;;;5047294;28;20459;-72
2021/07/12 04:22:38;;;;;;;12.40;3.50;;;12.90;99.90;;;;;;5048437;28;20829;-72
2021/07/12 04:25:07;;;;;;;3.90;3.60;;;12.90;99.90;;;;;;5048306;28;20476;-73
2021/07/12 04:27:34;;;;;;;4.93;3.50;;;12.90;99.90;;;;;;5048585;28;20459;-72
2021/07/12 04:30:00;;;;;;;3.30;2.97;;;12.90;99.90;;;;;;5047430;28;20479;-72
2021/07/12 04:32:27;;;;;;;3.33;2.97;;;13.00;99.90;;;;;;5047990;28;20530;-72
2021/07/12 04:34:55;;;;;;;4.03;3.20;;;13.00;99.90;;;;;;5046396;28;20491;-72
2021/07/12 04:37:22;;;;;;;4.07;3.67;;;13.00;99.90;;;;;;5048238;28;20879;-72
2021/07/12 04:39:49;;;;;;;5.10;3.70;;;13.00;99.90;;;;;;5047498;28;20467;-72
2021/07/12 04:42:15;;;;;;;4.70;3.33;;;13.00;99.90;;;;;;5048076;28;20469;-72
2021/07/12 04:44:42;;;;;;;3.80;3.40;;;13.10;99.90;;;;;;5047977;28;20483;-72
2021/07/12 04:47:09;;;;;;;3.57;3.27;;;13.10;99.90;;;;;;5048175;28;20474;-72
2021/07/12 04:49:36;;;;;;;3.20;3.00;;;13.10;99.90;;;;;;5049704;28;20470;-72
2021/07/12 04:52:05;;;;;;;3.83;3.50;;;13.20;99.90;;;;;;5051700;28;20516;-72
2021/07/12 04:54:32;;;;;;;4.67;3.63;;;13.20;99.90;;;;;;5052025;28;20483;-72
2021/07/12 04:56:59;;;;;;;3.57;3.27;;;13.30;99.90;;;;;;5051929;28;20528;-72
2021/07/12 04:59:27;;;;;;;3.77;3.43;;;13.30;99.90;;;;;;5051178;28;20474;-72
2021/07/12 05:01:54;;;;;;;4.40;3.23;;;13.40;99.90;;;;;;5051895;28;20546;-72
2021/07/12 05:04:21;;;;;;;5.40;2.97;;;13.40;99.90;;;;;;5052116;28;20471;-72
2021/07/12 05:06:48;;;;;;;4.17;3.30;;;13.50;99.90;;;;;;5052188;28;20474;-72
2021/07/12 05:09:16;;;;;;;4.53;3.70;;;13.50;99.90;;;;;;5050977;28;20463;-72
2021/07/12 05:11:43;;;;;;;4.53;4.13;;;13.60;99.90;;;;;;5051810;28;20491;-72
2021/07/12 05:14:09;;;;;;;5.73;4.50;;;13.70;99.90;;;;;;5051591;28;20486;-72
2021/07/12 05:16:36;;;;;;;5.07;4.60;;;13.80;99.90;;;;;;5052204;28;20470;-72
2021/07/12 05:19:04;;;;;;;5.93;4.20;;;14.00;99.90;;;;;;5051533;28;21039;-72
2021/07/12 05:21:30;;;;;;;4.50;4.10;;;14.10;99.90;;;;;;5051328;28;21013;-72
2021/07/12 05:23:57;;;;;;;4.63;4.23;;;14.20;99.90;;;;;;5051627;28;20483;-72
2021/07/12 05:26:25;;;;;;;5.57;4.37;;;14.40;99.90;;;;;;5051505;28;20459;-72
2021/07/12 05:28:52;;;;;;;4.37;3.97;;;14.50;99.90;;;;;;5051999;28;20879;-72
2021/07/12 05:31:19;;;;;;;6.73;4.70;;;14.60;99.90;;;;;;5050933;28;20487;-72
2021/07/12 05:33:46;;;;;;;6.80;4.73;;;14.70;99.90;;;;;;5051561;28;20483;-72
2021/07/12 05:36:13;;;;;;;5.87;4.87;;;14.70;99.90;;;;;;5051225;28;20467;-72
2021/07/12 05:38:40;;;;;;;5.43;4.23;;;14.70;99.90;;;;;;5051604;28;20466;-72
2021/07/12 05:41:07;;;;;;;7.77;4.40;;;14.80;99.90;;;;;;5050436;28;20997;-72
2021/07/12 05:43:36;;;;;;;5.80;4.67;;;14.90;99.90;;;;;;5051508;28;20541;-72
2021/07/12 05:46:03;;;;;;;5.43;4.67;;;14.90;99.90;;;;;;5051618;28;20460;-72
2021/07/12 05:48:30;;;;;;;5.53;4.80;;;15.00;99.90;;;;;;5051552;28;20475;-72
2021/07/12 05:50:56;;;;;;;4.90;4.10;;;15.00;99.90;;;;;;5050774;28;20479;-72
2021/07/12 05:53:23;;;;;;;6.70;5.50;;;15.10;99.90;;;;;;5050522;28;20468;-72
2021/07/12 05:55:50;;;;;;;5.90;4.90;;;15.20;99.90;;;;;;5051233;28;20459;-72
2021/07/12 05:58:17;;;;;;;5.30;4.83;;;15.20;99.90;;;;;;5050805;28;20472;-72
2021/07/12 06:00:45;;;;;;;5.60;4.80;;;15.30;99.90;;;;;;5050122;28;20862;-72
2021/07/12 06:03:12;;;;;;;5.10;4.60;;;15.40;99.90;;;;;;5050294;28;20681;-72
2021/07/12 06:05:38;;;;;;;6.50;4.87;;;15.50;99.90;;;;;;5051164;28;20460;-72
2021/07/12 06:08:06;;;;;;;6.53;4.63;;;15.50;99.90;;;;;;5050669;28;20452;-72
2021/07/12 06:10:33;;;;;;;5.17;4.67;;;15.60;99.90;;;;;;5050481;28;20479;-72
2021/07/12 06:12:59;;;;;;;5.10;4.70;;;15.70;99.90;;;;;;5050553;28;20532;-72
2021/07/12 06:15:26;;;;;;;4.70;4.30;;;15.80;99.90;;;;;;5050515;28;20476;-72
2021/07/12 06:17:54;;;;;;;5.40;4.90;;;15.90;99.90;;;;;;5050527;28;20463;-72
2021/07/12 06:20:21;;;;;;;4.70;4.30;;;16.00;99.90;;;;;;5045395;28;21009;-72
2021/07/12 06:22:50;;;;;;;7.00;4.20;;;16.10;99.90;;;;;;5048624;28;20471;-72
2021/07/12 06:25:18;;;;;;;5.80;3.80;;;16.20;99.90;;;;;;5049136;28;20607;-72
2021/07/12 06:27:46;;;;;;;4.83;4.00;;;16.20;99.90;;;;;;5049056;28;20464;-72
2021/07/12 06:30:14;;;;;;;6.13;4.40;;;16.30;99.90;;;;;;5048558;28;20470;-72
2021/07/12 06:32:41;;;;;;;7.53;3.93;;;16.40;99.90;;;;;;5047976;28;20861;-72
2021/07/12 06:35:11;;;;;;;8.03;4.00;;;16.50;99.90;;;;;;5049014;28;20494;-72
2021/07/12 06:37:38;;;;;;;5.60;3.97;;;16.60;99.90;;;;;;5048559;28;20460;-72
2021/07/12 06:40:06;;;;;;;4.80;3.57;;;16.60;99.90;;;;;;5049482;28;20466;-72
2021/07/12 06:42:33;;;;;;;4.50;3.77;;;16.70;99.90;;;;;;5049416;28;20463;-72
2021/07/12 06:44:59;;;;;;;5.43;3.77;;;16.80;99.90;;;;;;5049478;28;20791;-72
2021/07/12 06:47:27;;;;;;;5.90;3.97;;;16.80;99.90;;;;;;5049838;28;20459;-72
2021/07/12 06:49:54;;;;;;;8.90;4.30;;;16.90;99.90;;;;;;5048871;28;20467;-72
2021/07/12 06:52:23;;;;;;;7.07;4.23;;;16.90;99.90;;;;;;5049741;28;20487;-72
2021/07/12 06:54:50;;;;;;;4.50;3.83;;;17.00;99.90;;;;;;5049108;28;20491;-72
2021/07/12 06:57:20;;;;;;;5.33;3.93;;;17.10;99.90;;;;;;5048413;28;20475;-72
2021/07/12 06:59:50;;;;;;;5.53;3.23;;;17.10;99.90;;;;;;5049130;28;20905;-69
2021/07/12 07:02:17;;;;;;;3.80;3.37;;;17.20;99.90;;;;;;5049676;28;20470;-72
2021/07/12 07:04:44;;;;;;;6.50;3.40;;;17.30;99.90;;;;;;5049172;28;20483;-72
2021/07/12 07:07:13;;;;;;;4.20;3.30;;;17.40;99.90;;;;;;5048977;28;21027;-70
2021/07/12 07:09:41;;;;;;;3.80;3.40;;;17.40;99.90;;;;;;5048907;28;20558;-72
2021/07/12 07:12:09;;;;;;;6.10;3.90;;;17.50;99.90;;;;;;5047948;28;20487;-72
2021/07/12 07:14:36;;;;;;;5.20;3.53;;;17.50;99.90;;;;;;5049055;28;21064;-69
2021/07/12 07:17:03;;;;;;;3.93;3.27;;;17.60;99.90;;;;;;5049102;28;20966;-72
2021/07/12 07:19:30;;;;;;;3.10;2.80;;;17.60;99.90;;;;;;5048555;28;20555;-70
2021/07/12 07:21:58;;;;;;;4.13;3.03;;;17.70;99.90;;;;;;5049034;28;20547;-69
2021/07/12 07:24:25;;;;;;;4.77;3.20;;;17.80;99.90;;;;;;5048174;28;21063;-72
2021/07/12 07:26:53;;;;;;;3.70;3.40;;;17.80;99.90;;;;;;5048198;28;20467;-72
2021/07/12 07:29:22;;;;;;;3.53;3.17;;;17.80;99.90;;;;;;5048596;28;20524;-72
2021/07/12 07:31:49;;;;;;;3.43;2.90;;;17.80;99.90;;;;;;5048770;28;20610;-72
2021/07/12 07:34:16;;;;;;;3.17;2.80;;;17.90;99.90;;;;;;5048550;28;20487;-72
2021/07/12 07:36:45;;;;;;;5.40;2.77;;;18.00;99.90;;;;;;5049461;28;20459;-72
2021/07/12 07:39:12;;;;;;;4.60;2.43;;;18.00;99.90;;;;;;5048652;28;20554;-72
2021/07/12 07:41:40;;;;;;;4.90;2.67;;;18.10;99.90;;;;;;5048958;28;20516;-72
2021/07/12 07:44:08;;;;;;;4.90;2.50;;;18.20;99.90;;;;;;5049025;28;21008;-72
2021/07/12 07:46:36;;;;;;;2.50;2.30;;;18.20;99.90;;;;;;5048366;28;21251;-72
2021/07/12 07:49:07;;;;;;;2.97;2.70;;;18.30;99.90;;;;;;5049156;28;20542;-72
2021/07/12 07:51:35;;;;;;;2.77;2.57;;;18.40;99.90;;;;;;5044086;28;20879;-70
2021/07/12 07:54:02;;;;;;;2.63;2.43;;;18.50;99.90;;;;;;5047611;28;20481;-72
2021/07/12 07:56:29;;;;;;;2.60;2.40;;;18.60;99.90;;;;;;5047903;28;20525;-71
2021/07/12 07:58:56;;;;;;;3.27;2.37;;;18.70;99.90;;;;;;5047113;28;20475;-70
2021/07/12 08:01:25;;;;;;;2.40;2.20;;;18.80;99.90;;;;;;5047658;28;20978;-71
2021/07/12 08:03:52;;;;;;;2.23;2.03;;;18.90;99.90;;;;;;5047294;28;20858;-71
2021/07/12 08:06:19;;;;;;;2.00;1.87;;;19.00;99.90;;;;;;5048010;28;20473;-70
2021/07/12 08:08:47;;;;;;;4.13;2.30;;;19.00;99.90;;;;;;5048353;28;20954;-71
2021/07/12 08:11:14;;;;;;;4.67;2.33;;;19.10;99.90;;;;;;5047270;28;20530;-72
2021/07/12 08:13:41;;;;;;;2.20;2.00;;;19.20;99.90;;;;;;5047667;28;20475;-70
2021/07/12 08:16:09;;;;;;;2.20;2.00;;;19.30;99.90;;;;;;5047581;28;20467;-71
2021/07/12 08:18:38;;;;;;;3.60;2.50;;;19.40;99.90;;;;;;5048057;28;20470;-71
2021/07/12 08:21:06;;;;;;;3.30;2.17;;;19.40;99.90;;;;;;5046704;28;20553;-71
2021/07/12 08:23:33;;;;;;;2.57;2.37;;;19.50;99.90;;;;;;5050104;28;20960;-71
2021/07/12 08:26:01;;;;;;;3.27;2.07;;;19.60;99.90;;;;;;5051562;28;20467;-71
2021/07/12 08:28:29;;;;;;;3.63;2.50;;;19.70;99.90;;;;;;5051238;28;20486;-71
2021/07/12 08:30:57;;;;;;;2.60;2.40;;;19.80;99.90;;;;;;5122264;22;20658;-71
2021/07/12 08:33:24;;;;;;;3.10;2.30;;;19.90;99.90;;;;;;5049567;28;20458;-73
2021/07/12 08:35:52;;;;;;;2.37;1.93;;;20.00;99.90;;;;;;5050914;28;20465;-72
2021/07/12 08:38:19;;;;;;;2.87;2.50;;;20.10;99.90;;;;;;5050725;28;20811;-72
2021/07/12 08:40:47;;;;;;;3.47;1.90;;;20.10;99.90;;;;;;5050620;28;20842;-73
2021/07/12 08:43:15;;;;;;;2.73;2.53;;;20.20;99.90;;;;;;5051058;28;20456;-70
2021/07/12 08:45:43;;;;;;;4.10;1.77;;;20.30;99.90;;;;;;5051004;28;20467;-70
2021/07/12 08:48:10;;;;;;;3.40;2.43;;;20.40;99.90;;;;;;5051226;28;20485;-70
2021/07/12 08:50:36;;;;;;;2.70;2.30;;;20.50;99.90;;;;;;5049463;28;20455;-71
2021/07/12 08:53:04;;;;;;;2.80;2.20;;;20.60;99.90;;;;;;5050628;28;20487;-73
2021/07/12 08:55:31;;;;;;;2.30;1.90;;;20.70;99.90;;;;;;5049815;28;20958;-71
2021/07/12 08:58:03;;;;;;;1.87;1.77;;;20.80;99.90;;;;;;5050085;28;20463;-72
2021/07/12 09:00:39;;;;;;;2.87;2.40;;;20.90;99.90;;;;;;5049470;28;20517;-72
2021/07/12 09:03:27;;;;;;;7.60;2.30;;;21.10;99.90;;;;;;5050161;28;20942;-73
2021/07/12 09:05:56;;;;;;;2.10;1.90;;;21.20;99.90;;;;;;5049842;28;20459;-72
2021/07/12 09:08:46;;;;;;;3.00;2.13;;;21.30;99.90;;;;;;5049617;28;20494;-72
2021/07/12 09:11:16;;;;;;;2.80;2.40;;;21.40;99.90;;;;;;5049457;28;20544;-73
2021/07/12 09:13:52;;;;;;;2.13;1.93;;;21.50;99.90;;;;;;5048899;28;20515;-72
2021/07/12 09:16:40;;;;;;;2.20;2.00;;;21.60;99.90;;;;;;5049469;28;20459;-71
2021/07/12 09:19:23;;;;;;;2.30;2.10;;;21.60;99.90;;;;;;5049914;28;20466;-73
2021/07/12 09:21:53;;;;;;;2.37;2.13;;;21.60;99.90;;;;;;5048710;28;20477;-72
2021/07/12 09:24:30;;;;;;;4.10;2.10;;;21.70;99.90;;;;;;5049623;28;20585;-72
2021/07/12 09:27:02;;;;;;;2.40;2.20;;;21.90;99.90;;;;;;5050064;28;20456;-73
2021/07/12 09:29:31;;;;;;;2.37;2.17;;;22.00;99.90;;;;;;5049224;28;20473;-72
2021/07/12 09:31:59;;;;;;;2.20;1.93;;;22.10;99.90;;;;;;5049956;28;20850;-73
2021/07/12 09:34:26;;;;;;;2.00;1.80;;;22.20;99.90;;;;;;5048396;28;20483;-73
2021/07/12 09:36:55;;;;;;;2.60;2.10;;;22.30;99.90;;;;;;5049556;28;20470;-72
2021/07/12 09:39:29;;;;;;;3.60;2.30;;;22.30;99.90;;;;;;5049488;28;20466;-72
2021/07/12 09:41:58;;;;;;;3.10;2.30;;;22.40;99.90;;;;;;5049607;28;20455;-73
2021/07/12 09:44:26;;;;;;;2.40;1.93;;;22.40;99.90;;;;;;5049716;28;20581;-73
2021/07/12 09:46:54;;;;;;;2.13;1.97;;;22.60;99.90;;;;;;5049635;28;20562;-72
2021/07/12 09:49:23;;;;;;;2.30;2.10;;;22.70;99.90;;;;;;5048960;28;20764;-72
2021/07/12 09:51:54;;;;;;;2.67;2.27;;;22.70;99.90;;;;;;5049044;28;20483;-72
2021/07/12 09:54:24;;;;;;;2.47;2.27;;;22.80;99.90;;;;;;5048198;28;20566;-72
2021/07/12 09:56:54;;;;;;;2.27;2.03;;;22.90;99.90;;;;;;5027553;28;20952;-72
2021/07/12 09:59:21;;;;;;;2.07;1.87;;;23.00;99.90;;;;;;5026727;28;20490;-73
2021/07/12 10:01:56;;;;;;;2.67;2.10;;;23.10;99.90;;;;;;5027986;28;20460;-72
2021/07/12 10:04:24;;;;;;;2.60;2.10;;;23.20;99.90;;;;;;5023757;28;20504;-73
2021/07/12 10:06:53;;;;;;;3.20;2.17;;;23.30;99.90;;;;;;5008064;28;20466;-72
2021/07/12 10:09:22;;;;;;;2.37;2.17;;;23.40;99.90;;;;;;5007211;28;20462;-73
2021/07/12 10:11:50;;;;;;;3.33;2.10;;;23.50;99.90;;;;;;5007799;28;20596;-73
2021/07/12 10:14:18;;;;;;;1.73;1.63;;;23.50;99.90;;;;;;5008079;28;20485;-73
2021/07/12 10:16:45;;;;;;;2.93;1.77;;;23.60;99.90;;;;;;5008417;28;20575;-72
2021/07/12 10:19:12;;;;;;;2.50;2.30;;;23.60;99.90;;;;;;5016791;28;20684;-72
2021/07/12 10:21:41;;;;;;;2.17;1.97;;;23.50;99.90;;;;;;5015599;28;20472;-73
2021/07/12 10:24:08;;;;;;;2.93;2.40;;;23.50;99.90;;;;;;5012846;28;20473;-72
2021/07/12 10:26:51;;;;;;;2.40;2.20;;;23.40;99.90;;;;;;5006912;28;20461;-72
2021/07/12 10:29:23;;;;;;;3.33;2.10;;;23.40;99.90;;;;;;5025995;28;20562;-73
2021/07/12 10:32:13;;;;;;;2.20;2.00;;;23.40;99.90;;;;;;5027296;28;20472;-72
2021/07/12 10:34:43;;;;;;;2.33;1.67;;;23.40;99.90;;;;;;5026545;28;21083;-72
2021/07/12 10:37:28;;;;;;;2.00;1.90;;;23.40;99.90;;;;;;5017920;28;21197;-73
2021/07/12 10:40:25;;;;;;;2.10;1.90;;;23.40;99.90;;;;;;5017049;28;21210;-72
2021/07/12 10:42:59;;;;;;;3.30;2.03;;;23.50;99.90;;;;;;4995498;28;20473;-72
2021/07/12 10:45:43;;;;;;;2.20;2.00;;;23.40;99.90;;;;;;5015998;28;20588;-72
2021/07/12 10:48:13;;;;;;;2.00;1.80;;;23.40;99.90;;;;;;5016707;28;20552;-72
2021/07/12 10:50:46;;;;;;;2.03;1.83;;;23.40;99.90;;;;;;5015174;28;20520;-72
2021/07/12 10:53:57;;;;;;;2.10;1.90;;;23.30;99.90;;;;;;5017039;28;20480;-72
2021/07/12 10:56:24;;;;;;;3.10;2.33;;;23.30;99.90;;;;;;5018034;28;20903;-73
2021/07/12 10:58:52;;;;;;;2.63;2.07;;;23.30;99.90;;;;;;5018012;28;20468;-71
2021/07/12 11:01:38;;;;;;;2.13;1.90;;;23.30;99.90;;;;;;5021836;28;20548;-71
2021/07/12 11:04:45;;;;;;;2.93;2.40;;;23.20;99.90;;;;;;5025199;28;20994;-72
2021/07/12 11:07:14;;;;;;;3.70;2.00;;;23.20;99.90;;;;;;4945751;29;20968;-72
2021/07/12 11:10:03;;;;;;;2.53;1.80;;;23.20;99.90;;;;;;5012708;28;20547;-72
2021/07/12 11:12:35;;;;;;;1.73;1.63;;;23.20;99.90;;;;;;5006948;28;20492;-72
2021/07/12 11:15:16;;;;;;;3.97;2.10;;;23.30;99.90;;;;;;5007232;28;20496;-72
2021/07/12 11:17:56;;;;;;;2.37;2.17;;;23.50;99.90;;;;;;5006105;28;20731;-72
2021/07/12 11:20:42;;;;;;;2.40;2.20;;;23.60;99.90;;;;;;5025669;28;20460;-72
2021/07/12 11:23:09;;;;;;;1.93;1.80;;;23.80;99.90;;;;;;5026194;28;20452;-72
2021/07/12 11:25:39;;;;;;;3.33;2.23;;;23.90;99.90;;;;;;5025325;28;20471;-72
2021/07/12 11:28:11;;;;;;;2.40;2.20;;;24.00;99.90;;;;;;5026434;28;20465;-71
2021/07/12 11:30:38;;;;;;;2.67;2.17;;;24.10;99.90;;;;;;5025412;28;20468;-72
2021/07/12 11:33:07;;;;;;;2.50;2.20;;;24.20;99.90;;;;;;5026349;28;21103;-72
2021/07/12 11:35:35;;;;;;;3.10;2.00;;;24.30;99.90;;;;;;5026482;28;20475;-72
2021/07/12 11:38:04;;;;;;;2.43;2.10;;;24.30;99.90;;;;;;5026852;28;20468;-71
2021/07/12 11:40:31;;;;;;;2.77;2.20;;;24.30;99.90;;;;;;5025749;28;20972;-72
2021/07/12 11:42:59;;;;;;;2.10;1.90;;;24.40;99.90;;;;;;5026483;28;20959;-72
2021/07/12 11:45:27;;;;;;;2.50;2.30;;;24.40;99.90;;;;;;5026575;28;20535;-72
2021/07/12 11:47:56;;;;;;;2.80;2.10;;;24.50;99.90;;;;;;5026222;28;20470;-71
2021/07/12 11:50:27;;;;;;;2.30;2.10;;;24.50;99.90;;;;;;5026771;28;20469;-72
2021/07/12 11:52:57;;;;;;;2.03;1.90;;;24.40;99.90;;;;;;5026267;28;20488;-70
2021/07/12 11:55:26;;;;;;;2.10;1.90;;;24.40;99.90;;;;;;5026461;28;20512;-72
2021/07/12 11:57:56;;;;;;;1.97;1.80;;;24.40;99.90;;;;;;5026067;28;20460;-71
2021/07/12 12:00:27;;;;;;;2.23;2.10;;;24.40;99.90;;;;;;5026730;28;20515;-72
2021/07/12 12:02:57;;;;;;;2.20;2.00;;;24.40;99.90;;;;;;5026339;28;20456;-72
2021/07/12 12:05:28;;;;;;;2.37;1.93;;;24.60;99.90;;;;;;5026594;28;20484;-72
2021/07/12 12:07:58;;;;;;;2.60;2.20;;;24.70;99.90;;;;;;5027124;28;20555;-71
2021/07/12 12:10:28;;;;;;;1.77;1.67;;;24.70;99.90;;;;;;5024982;28;20969;-71
2021/07/12 12:12:57;;;;;;;2.60;2.40;;;24.80;99.90;;;;;;5026739;28;20685;-73
2021/07/12 12:15:26;;;;;;;1.63;1.53;;;24.90;99.90;;;;;;5025875;28;20499;-72
2021/07/12 12:17:56;;;;;;;3.10;1.97;;;24.90;99.90;;;;;;5026193;28;20999;-72
2021/07/12 12:20:30;;;;;;;2.97;2.60;;;25.00;99.90;;;;;;5025777;28;20468;-72
2021/07/12 12:23:03;;;;;;;2.30;2.10;;;25.20;99.90;;;;;;5026910;28;20460;-72
2021/07/12 12:25:33;;;;;;;3.40;1.90;;;25.30;99.90;;;;;;5025458;28;20510;-72
2021/07/12 12:28:00;;;;;;;2.07;1.93;;;25.40;99.90;;;;;;5026463;28;20535;-72
2021/07/12 12:30:27;;;;;;;4.17;2.17;;;25.40;99.90;;;;;;5025764;28;20955;-72
2021/07/12 12:32:56;;;;;;;2.23;2.03;;;25.50;99.90;;;;;;5026052;28;20489;-72
2021/07/12 12:35:25;;;;;;;2.67;2.47;;;25.50;99.90;;;;;;5026888;28;20542;-72
2021/07/12 12:37:53;;;;;;;2.20;2.00;;;25.30;99.90;;;;;;5027065;28;20556;-72
2021/07/12 12:40:22;;;;;;;2.23;2.03;;;25.30;99.90;;;;;;5025936;28;20460;-72
2021/07/12 12:42:51;;;;;;;2.80;2.10;;;25.30;99.90;;;;;;5026593;28;20464;-72
2021/07/12 12:45:29;;;;;;;2.30;2.10;;;25.40;99.90;;;;;;5026549;28;20484;-72
2021/07/12 12:47:57;;;;;;;2.40;2.20;;;25.60;99.90;;;;;;5024478;28;20472;-72
2021/07/12 12:50:25;;;;;;;3.33;2.07;;;25.70;99.90;;;;;;5020286;28;20841;-72
2021/07/12 12:53:05;;;;;;;4.60;2.43;;;25.70;99.90;;;;;;5007977;28;20490;-70
2021/07/12 12:55:32;;;;;;;2.20;2.00;;;25.70;99.90;;;;;;5009705;28;20997;-71
2021/07/12 12:58:08;;;;;;;2.13;1.90;;;25.70;99.90;;;;;;5026996;28;20468;-70
2021/07/12 13:00:34;;;;;;;2.83;2.20;;;25.80;99.90;;;;;;5025924;28;20468;-71
2021/07/12 13:03:01;;;;;;;2.40;1.90;;;25.80;99.90;;;;;;5027136;28;20456;-71